Time;durP1;ratioP1;P1;durP2;ratioP2;P2;SDS_P1;SDS_P2;PMS_P1;PMS_P2;Temp;Humidity;BMP_temperature;BMP_pressure;BME280_temperature;BME280_humidity;BME280_pressure;Samples;Min_cycle;Max_cycle;Signal;HPM_P1;HPM_P2
2021/10/15 00:00:12;;;;;;;18.05;9.68;;;;;;;;;;4301245;33;20132;-73
2021/10/15 00:02:37;;;;;;;13.48;9.00;;;;;;;;;;4301544;33;20197;-73
2021/10/15 00:05:03;;;;;;;13.40;9.25;;;;;;;;;;4301668;33;20128;-73
2021/10/15 00:07:28;;;;;;;17.27;9.60;;;;;;;;;;4302160;33;20152;-74
2021/10/15 00:09:53;;;;;;;16.48;10.13;;;;;;;;;;4288068;33;20251;-74
2021/10/15 00:12:18;;;;;;;22.20;9.40;;;;;;;;;;4300910;33;20578;-74
2021/10/15 00:14:54;;;;;;;15.15;9.18;;;;;;;;;;4301671;33;20483;-74
2021/10/15 00:17:22;;;;;;;17.85;9.35;;;;;;;;;;4301960;33;20158;-74
2021/10/15 00:19:47;;;;;;;16.52;9.10;;;;;;;;;;4301420;33;20167;-74
2021/10/15 00:22:12;;;;;;;14.27;9.18;;;;;;;;;;4301654;33;20132;-74
2021/10/15 00:24:42;;;;;;;15.20;9.13;;;;;;;;;;4286815;33;20242;-74
2021/10/15 00:27:07;;;;;;;16.67;10.02;;;;;;;;;;4288482;33;20160;-74
2021/10/15 00:29:37;;;;;;;17.27;9.00;;;;;;;;;;4301264;33;20187;-74
2021/10/15 00:32:02;;;;;;;18.62;9.00;;;;;;;;;;4301513;33;20136;-73
2021/10/15 00:34:31;;;;;;;18.00;9.15;;;;;;;;;;4288280;33;20191;-74
2021/10/15 00:36:56;;;;;;;17.92;9.82;;;;;;;;;;4301215;33;20125;-74
2021/10/15 00:39:21;;;;;;;17.98;9.40;;;;;;;;;;4288481;33;20482;-74
2021/10/15 00:42:04;;;;;;;16.73;9.20;;;;;;;;;;4288887;33;20531;-75
2021/10/15 00:44:32;;;;;;;15.02;8.98;;;;;;;;;;4290855;33;20160;-73
2021/10/15 00:46:57;;;;;;;19.75;9.45;;;;;;;;;;4288805;33;20195;-73
2021/10/15 00:49:41;;;;;;;14.43;8.60;;;;;;;;;;4289814;33;20125;-74
2021/10/15 00:52:10;;;;;;;18.55;9.88;;;;;;;;;;4289391;33;20195;-73
2021/10/15 00:54:36;;;;;;;21.37;10.27;;;;;;;;;;4288486;33;20468;-73
2021/10/15 00:57:02;;;;;;;19.02;10.35;;;;;;;;;;4276512;33;20192;-73
2021/10/15 00:59:27;;;;;;;15.82;9.10;;;;;;;;;;4276168;33;20173;-75
2021/10/15 01:01:52;;;;;;;17.10;9.77;;;;;;;;;;4277432;33;20187;-75
2021/10/15 01:04:24;;;;;;;15.85;10.05;;;;;;;;;;4289755;33;20165;-74
2021/10/15 01:07:01;;;;;;;19.65;9.25;;;;;;;;;;4289814;33;20167;-74
2021/10/15 01:09:26;;;;;;;18.70;10.35;;;;;;;;;;4290087;33;20140;-74
2021/10/15 01:11:51;;;;;;;16.27;9.35;;;;;;;;;;4289486;33;20478;-74
2021/10/15 01:14:17;;;;;;;16.60;9.55;;;;;;;;;;4276360;33;20468;-74
2021/10/15 01:16:44;;;;;;;15.95;10.77;;;;;;;;;;4288146;33;20192;-74
2021/10/15 01:19:10;;;;;;;15.13;9.68;;;;;;;;;;4276288;33;20187;-74
2021/10/15 01:21:35;;;;;;;19.48;10.18;;;;;;;;;;4287871;33;20157;-74
2021/10/15 01:24:00;;;;;;;17.48;9.48;;;;;;;;;;4289333;33;20156;-74
2021/10/15 01:26:26;;;;;;;17.05;9.43;;;;;;;;;;4276789;33;20179;-74
2021/10/15 01:28:53;;;;;;;16.45;9.30;;;;;;;;;;4276266;33;20157;-74
2021/10/15 01:31:28;;;;;;;17.10;9.07;;;;;;;;;;4276019;33;20192;-74
2021/10/15 01:33:57;;;;;;;13.95;8.95;;;;;;;;;;4289630;33;20148;-74
2021/10/15 01:36:25;;;;;;;17.90;9.50;;;;;;;;;;4289174;33;20138;-74
2021/10/15 01:39:17;;;;;;;19.15;9.73;;;;;;;;;;4275739;33;20231;-74
2021/10/15 01:41:53;;;;;;;17.23;9.45;;;;;;;;;;4270039;33;20210;-74
2021/10/15 01:44:18;;;;;;;16.60;9.23;;;;;;;;;;4287930;33;20636;-74
2021/10/15 01:46:43;;;;;;;16.20;8.88;;;;;;;;;;4285449;33;20195;-74
2021/10/15 01:49:09;;;;;;;19.87;8.90;;;;;;;;;;4303405;33;20208;-74
2021/10/15 01:51:36;;;;;;;14.35;9.38;;;;;;;;;;4289875;33;20207;-73
2021/10/15 01:54:02;;;;;;;16.30;8.88;;;;;;;;;;4303058;33;20132;-74
2021/10/15 01:56:27;;;;;;;15.00;9.38;;;;;;;;;;4290218;33;20733;-74
2021/10/15 01:58:52;;;;;;;19.65;10.40;;;;;;;;;;4289949;33;20199;-74
2021/10/15 02:01:21;;;;;;;17.12;9.18;;;;;;;;;;4303221;33;20535;-74
2021/10/15 02:04:10;;;;;;;13.25;9.00;;;;;;;;;;4303256;33;20140;-74
2021/10/15 02:06:38;;;;;;;15.93;8.68;;;;;;;;;;4302380;33;20172;-74
2021/10/15 02:09:13;;;;;;;;;;;;;;;;;;;;;
2021/10/15 02:11:39;;;;;;;18.05;9.63;;;;;;;;;;4300605;33;20481;-74
2021/10/15 02:14:20;;;;;;;16.12;9.43;;;;;;;;;;4289856;33;20175;-74
2021/10/15 02:16:45;;;;;;;16.30;8.77;;;;;;;;;;4303219;33;20184;-74
2021/10/15 02:19:13;;;;;;;20.45;8.45;;;;;;;;;;4289790;33;20160;-74
2021/10/15 02:21:39;;;;;;;16.10;7.82;;;;;;;;;;4289874;33;20172;-74
2021/10/15 02:24:10;;;;;;;17.77;7.93;;;;;;;;;;4287591;33;20156;-74
2021/10/15 02:26:35;;;;;;;18.58;8.60;;;;;;;;;;4289050;33;20184;-74
2021/10/15 02:29:00;;;;;;;16.98;8.35;;;;;;;;;;4288283;33;20454;-74
2021/10/15 02:31:26;;;;;;;16.10;7.93;;;;;;;;;;4275004;33;20495;-74
2021/10/15 02:33:54;;;;;;;16.27;8.50;;;;;;;;;;4288892;33;20518;-74
2021/10/15 02:36:32;;;;;;;21.58;8.18;;;;;;;;;;4275193;33;20153;-73
2021/10/15 02:39:16;;;;;;;12.85;7.65;;;;;;;;;;4275041;33;20250;-73
2021/10/15 02:41:48;;;;;;;19.73;8.00;;;;;;;;;;4288481;33;20196;-73
2021/10/15 02:44:35;;;;;;;;;;;;;;;;;;;;;
2021/10/15 02:47:01;;;;;;;16.23;8.13;;;;;;;;;;4288403;33;20149;-74
2021/10/15 02:49:27;;;;;;;16.27;7.82;;;;;;;;;;4288425;33;20167;-74
2021/10/15 02:51:52;;;;;;;19.20;8.35;;;;;;;;;;4288268;33;20452;-74
2021/10/15 02:54:47;;;;;;;16.70;7.95;;;;;;;;;;4275181;33;20247;-74
2021/10/15 03:00:53;;;;;;;19.77;9.15;;;;;;;;;;4274385;33;20229;-74
2021/10/15 03:03:51;;;;;;;;;;;;;;;;;;;;;
2021/10/15 03:09:02;;;;;;;18.70;9.68;;;;;;;;;;4277701;33;20176;-73
2021/10/15 03:11:31;;;;;;;15.20;8.90;;;;;;;;;;4287984;33;20172;-74
2021/10/15 03:13:56;;;;;;;22.05;10.10;;;;;;;;;;4274487;33;20149;-74
2021/10/15 03:16:21;;;;;;;16.45;10.57;;;;;;;;;;4287802;33;20193;-74
2021/10/15 03:18:49;;;;;;;22.40;10.77;;;;;;;;;;4274230;33;20595;-74
2021/10/15 03:21:15;;;;;;;18.95;9.32;;;;;;;;;;4274627;33;20149;-73
2021/10/15 03:23:59;;;;;;;22.25;9.30;;;;;;;;;;4287698;33;20506;-73
2021/10/15 03:26:27;;;;;;;19.05;8.50;;;;;;;;;;4287933;33;20200;-73
2021/10/15 03:29:01;;;;;;;19.23;9.07;;;;;;;;;;4274502;33;20197;-74
2021/10/15 03:31:27;;;;;;;20.20;9.00;;;;;;;;;;4287691;33;20167;-73
2021/10/15 03:33:52;;;;;;;22.00;9.55;;;;;;;;;;4274404;33;20256;-75
2021/10/15 03:36:38;;;;;;;21.85;9.68;;;;;;;;;;4274199;33;20226;-74
2021/10/15 03:39:10;;;;;;;19.33;8.98;;;;;;;;;;4287020;33;20173;-73
2021/10/15 03:41:36;;;;;;;21.90;9.10;;;;;;;;;;4274745;33;20169;-73
2021/10/15 03:44:04;;;;;;;17.87;8.32;;;;;;;;;;4287186;33;20526;-72
2021/10/15 03:46:29;;;;;;;21.35;8.85;;;;;;;;;;4287241;33;20152;-73
2021/10/15 03:51:49;;;;;;;17.30;8.27;;;;;;;;;;4228783;34;20158;-72
2021/10/15 03:54:59;;;;;;;14.95;8.90;;;;;;;;;;4269654;33;20159;-73
2021/10/15 03:57:06;;;;;;;16.67;8.93;;;;;;;;;;4279646;33;20578;-73
2021/10/15 03:59:32;;;;;;;17.50;8.85;;;;;;;;;;4273650;33;20169;-73
2021/10/15 04:01:57;;;;;;;19.20;8.75;;;;;;;;;;4273946;33;20172;-73
2021/10/15 04:04:31;;;;;;;18.23;9.20;;;;;;;;;;4273975;33;20176;-70
2021/10/15 04:06:57;;;;;;;15.82;9.18;;;;;;;;;;4287133;33;20186;-74
2021/10/15 04:09:22;;;;;;;20.88;9.93;;;;;;;;;;4286920;33;20202;-75
2021/10/15 04:11:56;;;;;;;19.50;8.82;;;;;;;;;;4273764;33;20200;-74
2021/10/15 04:14:24;;;;;;;16.35;9.65;;;;;;;;;;4274581;33;20172;-74
2021/10/15 04:16:58;;;;;;;20.30;8.70;;;;;;;;;;4287480;33;20274;-73
2021/10/15 04:19:28;;;;;;;19.35;8.23;;;;;;;;;;4287341;33;20475;-75
2021/10/15 04:22:12;;;;;;;15.77;6.60;;;;;;;;;;4287776;33;20129;-73
2021/10/15 04:24:38;;;;;;;14.93;5.80;;;;;;;;;;4278749;33;20172;-73
2021/10/15 04:27:26;;;;;;;10.73;4.00;;;;;;;;;;4301664;33;20160;-74
2021/10/15 04:29:52;;;;;;;11.12;3.87;;;;;;;;;;4293590;33;20214;-74
2021/10/15 04:32:17;;;;;;;10.13;3.53;;;;;;;;;;4301412;33;20554;-73
2021/10/15 04:37:36;;;;;;;12.48;3.40;;;;;;;;;;4301424;33;20150;-73
2021/10/15 04:40:06;;;;;;;10.50;3.42;;;;;;;;;;4301395;33;20149;-75
2021/10/15 04:42:52;;;;;;;9.95;4.05;;;;;;;;;;4302200;33;20490;-74
2021/10/15 04:45:17;;;;;;;12.98;3.60;;;;;;;;;;4301340;33;20499;-74
2021/10/15 04:47:43;;;;;;;11.88;3.45;;;;;;;;;;4287866;33;20215;-74
2021/10/15 04:50:08;;;;;;;13.90;3.90;;;;;;;;;;4301338;33;20235;-75
2021/10/15 04:52:34;;;;;;;8.95;3.40;;;;;;;;;;4288289;33;20579;-73
2021/10/15 04:54:59;;;;;;;10.38;3.37;;;;;;;;;;4300897;33;20207;-74
2021/10/15 04:57:25;;;;;;;17.25;3.65;;;;;;;;;;4288244;33;20206;-73
2021/10/15 04:59:50;;;;;;;14.13;3.47;;;;;;;;;;4301142;33;20148;-75
2021/10/15 05:02:18;;;;;;;13.68;3.45;;;;;;;;;;4287799;33;20156;-73
2021/10/15 05:05:02;;;;;;;;;;;;;;;;;;;;;
2021/10/15 05:07:29;;;;;;;9.65;3.58;;;;;;;;;;4300694;33;20208;-73
2021/10/15 05:10:15;;;;;;;17.12;3.70;;;;;;;;;;4301085;33;20200;-74
2021/10/15 05:12:41;;;;;;;8.80;3.40;;;;;;;;;;4300992;33;20165;-74
2021/10/15 05:15:10;;;;;;;14.77;3.47;;;;;;;;;;4287552;33;20195;-74
2021/10/15 05:17:35;;;;;;;14.30;3.22;;;;;;;;;;4301026;33;20542;-71
2021/10/15 05:20:01;;;;;;;14.77;3.65;;;;;;;;;;4300678;33;20219;-73
2021/10/15 05:22:34;;;;;;;13.45;3.85;;;;;;;;;;4301393;33;20544;-74
2021/10/15 05:24:59;;;;;;;11.45;3.80;;;;;;;;;;4300850;33;20179;-73
2021/10/15 05:27:24;;;;;;;8.77;3.15;;;;;;;;;;4287642;33;20471;-73
2021/10/15 05:29:58;;;;;;;11.07;3.33;;;;;;;;;;4301662;33;20191;-73
2021/10/15 05:32:23;;;;;;;10.77;3.40;;;;;;;;;;4303817;33;20617;-74
2021/10/15 05:34:49;;;;;;;10.70;3.08;;;;;;;;;;4290097;33;20172;-72
2021/10/15 05:37:14;;;;;;;11.80;3.30;;;;;;;;;;4303563;33;20175;-73
2021/10/15 05:39:47;;;;;;;8.82;3.87;;;;;;;;;;4289972;33;20199;-73
2021/10/15 05:42:12;;;;;;;20.65;4.43;;;;;;;;;;4303543;33;20132;-73
2021/10/15 05:44:37;;;;;;;14.70;4.53;;;;;;;;;;4300158;33;20174;-72
2021/10/15 05:47:17;;;;;;;;;;;;;;;;;;;;;
2021/10/15 05:53:17;;;;;;;13.20;4.55;;;;;;;;;;4266134;33;20203;-75
2021/10/15 06:00:49;;;;;;;11.73;4.40;;;;;;;;;;4288658;33;20156;-75
2021/10/15 06:03:19;;;;;;;10.68;4.82;;;;;;;;;;4272598;33;20173;-75
2021/10/15 06:14:26;;;;;;;12.75;6.15;;;;;;;;;;4280286;33;20208;-75
2021/10/15 06:20:06;;;;;;;11.35;4.78;;;;;;;;;;4285571;33;20186;-76
2021/10/15 06:22:38;;;;;;;4.22;2.33;;;;;;;;;;4275353;33;20211;-75
2021/10/15 06:25:04;;;;;;;3.08;1.50;;;;;;;;;;4282558;33;20180;-75
2021/10/15 06:27:45;;;;;;;5.37;1.50;;;;;;;;;;4289789;33;20233;-75
2021/10/15 06:30:24;;;;;;;4.97;1.20;;;;;;;;;;4289157;33;20179;-75
2021/10/15 06:32:53;;;;;;;4.18;1.25;;;;;;;;;;4289521;33;20164;-75
2021/10/15 06:35:18;;;;;;;3.25;1.00;;;;;;;;;;4276154;33;20291;-75
2021/10/15 06:37:44;;;;;;;3.62;0.73;;;;;;;;;;4273852;33;20141;-75
2021/10/15 06:40:09;;;;;;;1.62;0.73;;;;;;;;;;4272497;33;20522;-74
2021/10/15 06:42:35;;;;;;;3.03;0.68;;;;;;;;;;4274254;33;20228;-75
2021/10/15 06:45:03;;;;;;;2.15;0.70;;;;;;;;;;4287600;33;20188;-74
2021/10/15 06:47:34;;;;;;;3.10;0.70;;;;;;;;;;4275131;33;20238;-75
2021/10/15 06:50:00;;;;;;;3.20;0.80;;;;;;;;;;4274457;33;20168;-75
2021/10/15 06:52:38;;;;;;;;;;;;;;;;;;;;;
2021/10/15 06:55:15;;;;;;;3.83;0.70;;;;;;;;;;4288737;33;20137;-75
2021/10/15 06:57:58;;;;;;;3.75;0.88;;;;;;;;;;4288367;33;20125;-75
2021/10/15 07:00:36;;;;;;;5.12;1.10;;;;;;;;;;4286192;33;20236;-75
2021/10/15 07:03:02;;;;;;;7.47;1.10;;;;;;;;;;4269415;33;20153;-75
2021/10/15 07:05:27;;;;;;;4.03;1.00;;;;;;;;;;4271806;33;20183;-75
2021/10/15 07:08:04;;;;;;;8.27;1.67;;;;;;;;;;4272235;33;20495;-76
2021/10/15 07:10:35;;;;;;;3.22;1.02;;;;;;;;;;4272344;33;20176;-76
2021/10/15 07:13:09;;;;;;;4.97;0.95;;;;;;;;;;4271905;33;20178;-75
2021/10/15 07:18:26;;;;;;;8.07;1.40;;;;;;;;;;4265772;33;20165;-78
2021/10/15 07:20:59;;;;;;;3.85;1.27;;;;;;;;;;4272118;33;20157;-75
2021/10/15 07:23:31;;;;;;;8.32;1.23;;;;;;;;;;4272617;33;20170;-75
2021/10/15 07:26:03;;;;;;;4.93;1.12;;;;;;;;;;4298295;33;20149;-77
2021/10/15 07:28:35;;;;;;;3.87;1.10;;;;;;;;;;4301843;33;20140;-75
2021/10/15 07:31:31;;;;;;;6.43;1.10;;;;;;;;;;4287305;33;20167;-76
2021/10/15 07:34:12;;;;;;;5.53;1.30;;;;;;;;;;4288809;33;20168;-75
2021/10/15 07:36:57;;;;;;;;;;;;;;;;;;;;;
2021/10/15 07:40:21;;;;;;;8.43;1.40;;;;;;;;;;4299654;33;20171;-75
2021/10/15 07:42:24;;;;;;;10.60;1.42;;;;;;;;;;4291361;33;20171;-76
2021/10/15 07:44:55;;;;;;;8.85;1.50;;;;;;;;;;4288642;33;20200;-75
2021/10/15 07:47:26;;;;;;;8.77;1.62;;;;;;;;;;4288488;33;20211;-75
2021/10/15 07:50:20;;;;;;;8.45;1.70;;;;;;;;;;4301576;33;20223;-75
2021/10/15 07:52:51;;;;;;;8.80;2.03;;;;;;;;;;4301031;33;20166;-74
2021/10/15 07:55:38;;;;;;;;;;;;;;;;;;;;;
2021/10/15 07:58:14;;;;;;;;;;;;;;;;;;;;;
2021/10/15 08:00:45;;;;;;;8.05;1.30;;;;;;;;;;4298562;33;20164;-77
2021/10/15 08:03:16;;;;;;;9.00;1.70;;;;;;;;;;4288442;33;20637;-76
2021/10/15 08:05:51;;;;;;;9.32;1.67;;;;;;;;;;4288490;33;20227;-76
2021/10/15 08:08:26;;;;;;;7.70;1.35;;;;;;;;;;4288705;33;20507;-75
2021/10/15 08:10:52;;;;;;;8.75;1.48;;;;;;;;;;4288238;33;20474;-75
2021/10/15 08:13:17;;;;;;;9.23;1.50;;;;;;;;;;4288867;33;20172;-75
2021/10/15 08:18:40;;;;;;;9.35;1.85;;;;;;;;;;4301669;33;20223;-75
2021/10/15 08:21:24;;;;;;;11.23;2.10;;;;;;;;;;4301417;33;20158;-75
2021/10/15 08:23:49;;;;;;;8.10;1.35;;;;;;;;;;4287907;33;20195;-75
2021/10/15 08:26:15;;;;;;;7.78;1.60;;;;;;;;;;4287956;33;20165;-75
2021/10/15 08:28:45;;;;;;;8.15;1.70;;;;;;;;;;4301250;33;20137;-75
2021/10/15 08:31:22;;;;;;;8.60;1.58;;;;;;;;;;4287950;33;20152;-75
2021/10/15 08:34:07;;;;;;;8.63;1.67;;;;;;;;;;4288528;33;20215;-75
2021/10/15 08:36:43;;;;;;;;;;;;;;;;;;;;;
2021/10/15 08:39:10;;;;;;;6.22;1.33;;;;;;;;;;4298570;33;20233;-76
2021/10/15 08:42:01;;;;;;;9.35;1.80;;;;;;;;;;4287983;33;20167;-76
2021/10/15 08:45:16;;;;;;;7.87;1.95;;;;;;;;;;4288011;33;20529;-75
2021/10/15 08:48:07;;;;;;;6.35;1.65;;;;;;;;;;4299969;33;20169;-76
2021/10/15 08:53:28;;;;;;;8.95;1.50;;;;;;;;;;4257057;33;20176;-75
2021/10/15 09:01:49;;;;;;;8.60;1.58;;;;;;;;;;4297410;33;20587;-77
2021/10/15 09:04:18;;;;;;;7.22;1.55;;;;;;;;;;4303458;33;20182;-74
2021/10/15 09:07:20;;;;;;;13.10;1.60;;;;;;;;;;4304957;33;20159;-75
2021/10/15 09:09:45;;;;;;;12.43;1.60;;;;;;;;;;4318781;33;20190;-74
2021/10/15 09:12:56;;;;;;;8.25;1.50;;;;;;;;;;4318133;33;20148;-75
2021/10/15 09:15:42;;;;;;;9.77;1.42;;;;;;;;;;4302695;33;20160;-75
2021/10/15 09:18:09;;;;;;;11.05;1.92;;;;;;;;;;4304887;33;20209;-75
2021/10/15 09:20:45;;;;;;;10.98;1.58;;;;;;;;;;4318229;33;20140;-75
2021/10/15 09:23:11;;;;;;;10.32;1.37;;;;;;;;;;4305335;33;20190;-75
2021/10/15 09:26:07;;;;;;;10.85;2.05;;;;;;;;;;4304967;33;20179;-74
2021/10/15 09:28:39;;;;;;;6.78;1.65;;;;;;;;;;4291009;33;20149;-74
2021/10/15 09:31:15;;;;;;;7.50;1.42;;;;;;;;;;4290833;33;20157;-75
2021/10/15 09:34:12;;;;;;;;;;;;;;;;;;;;;
2021/10/15 09:36:47;;;;;;;10.77;1.70;;;;;;;;;;4303817;33;20175;-74
2021/10/15 09:39:49;;;;;;;10.07;1.48;;;;;;;;;;4303623;33;20158;-75
2021/10/15 09:42:35;;;;;;;10.85;1.90;;;;;;;;;;4303205;33;20194;-73
2021/10/15 09:45:20;;;;;;;8.27;1.52;;;;;;;;;;4290023;33;20176;-75
2021/10/15 09:48:05;;;;;;;9.15;1.62;;;;;;;;;;4275919;33;20152;-74
2021/10/15 09:50:33;;;;;;;9.05;1.90;;;;;;;;;;4269266;33;20276;-74
2021/10/15 09:53:34;;;;;;;7.47;1.50;;;;;;;;;;4289183;33;20195;-74
2021/10/15 09:56:04;;;;;;;6.05;1.70;;;;;;;;;;4296495;33;20614;-73
2021/10/15 09:58:49;;;;;;;8.07;1.23;;;;;;;;;;4289249;33;20169;-74
2021/10/15 10:01:34;;;;;;;7.30;1.45;;;;;;;;;;4301749;33;20245;-74
2021/10/15 10:04:06;;;;;;;6.05;1.52;;;;;;;;;;4304095;33;20176;-74
2021/10/15 10:06:44;;;;;;;6.95;1.20;;;;;;;;;;4287849;33;20349;-75
2021/10/15 10:09:09;;;;;;;6.57;1.55;;;;;;;;;;4287487;33;20208;-74
2021/10/15 10:11:35;;;;;;;8.27;1.20;;;;;;;;;;4287186;33;20191;-74
2021/10/15 10:14:12;;;;;;;4.97;1.48;;;;;;;;;;4288429;33;20137;-74
2021/10/15 10:16:43;;;;;;;10.38;1.70;;;;;;;;;;4286861;33;20165;-74
2021/10/15 10:19:09;;;;;;;10.88;1.95;;;;;;;;;;4288403;33;20179;-72
2021/10/15 10:21:34;;;;;;;5.60;1.30;;;;;;;;;;4287995;33;20270;-74
2021/10/15 10:24:04;;;;;;;7.07;1.42;;;;;;;;;;4288442;33;20167;-74
2021/10/15 10:26:41;;;;;;;8.85;1.30;;;;;;;;;;4299967;33;20666;-73
2021/10/15 10:29:10;;;;;;;6.80;1.10;;;;;;;;;;4303133;33;20171;-74
2021/10/15 10:31:35;;;;;;;8.38;1.12;;;;;;;;;;4301287;33;20168;-75
2021/10/15 10:34:10;;;;;;;7.05;1.65;;;;;;;;;;4303116;33;20136;-73
2021/10/15 10:36:37;;;;;;;7.60;1.30;;;;;;;;;;4303536;33;20162;-75
2021/10/15 10:39:21;;;;;;;7.15;0.98;;;;;;;;;;4301534;33;20191;-74
2021/10/15 10:42:04;;;;;;;10.82;1.10;;;;;;;;;;4301726;33;20219;-74
2021/10/15 10:47:46;;;;;;;16.25;1.67;;;;;;;;;;4298677;33;20505;-72
2021/10/15 10:50:17;;;;;;;7.55;1.30;;;;;;;;;;4299589;33;20182;-74
2021/10/15 10:52:45;;;;;;;10.18;1.33;;;;;;;;;;4301945;33;20191;-75
2021/10/15 10:55:29;;;;;;;6.75;1.00;;;;;;;;;;4302605;33;20203;-72
2021/10/15 10:57:54;;;;;;;8.13;1.40;;;;;;;;;;4301896;33;20195;-73
2021/10/15 11:00:24;;;;;;;9.05;1.37;;;;;;;;;;4289130;33;20641;-74
2021/10/15 11:03:05;;;;;;;10.05;1.42;;;;;;;;;;4302002;33;20175;-74
2021/10/15 11:05:41;;;;;;;10.15;1.60;;;;;;;;;;4289006;33;20156;-73
2021/10/15 11:08:46;;;;;;;10.40;1.48;;;;;;;;;;4289390;33;20148;-74
2021/10/15 11:11:42;;;;;;;7.65;1.30;;;;;;;;;;4301793;33;20211;-74
2021/10/15 11:14:19;;;;;;;6.72;1.17;;;;;;;;;;4302740;33;20151;-74
2021/10/15 11:16:44;;;;;;;7.22;1.25;;;;;;;;;;4289524;33;20548;-73
2021/10/15 11:19:17;;;;;;;3.35;1.00;;;;;;;;;;4301667;33;20153;-74
2021/10/15 11:21:42;;;;;;;7.80;1.20;;;;;;;;;;4288776;33;20160;-73
2021/10/15 11:24:12;;;;;;;4.70;1.23;;;;;;;;;;4301690;33;20148;-74
2021/10/15 11:26:37;;;;;;;6.30;1.30;;;;;;;;;;4301802;33;20539;-74
2021/10/15 11:29:02;;;;;;;7.00;1.60;;;;;;;;;;4288751;33;20218;-73
2021/10/15 11:31:28;;;;;;;8.43;1.40;;;;;;;;;;4288506;33;20693;-74
2021/10/15 11:33:56;;;;;;;7.20;1.30;;;;;;;;;;4302247;33;20294;-75
2021/10/15 11:36:37;;;;;;;;;;;;;;;;;;;;;
2021/10/15 11:39:45;;;;;;;;;;;;;;;;;;;;;
2021/10/15 11:42:21;;;;;;;6.62;1.23;;;;;;;;;;4286674;33;20183;-75
2021/10/15 11:44:55;;;;;;;6.53;1.10;;;;;;;;;;4278505;33;20164;-74
2021/10/15 11:47:20;;;;;;;5.60;1.50;;;;;;;;;;4287615;33;20128;-74
2021/10/15 11:49:46;;;;;;;6.37;1.30;;;;;;;;;;4288557;33;20523;-75
2021/10/15 11:52:11;;;;;;;6.40;1.40;;;;;;;;;;4276713;33;20156;-73
2021/10/15 11:54:36;;;;;;;5.12;1.25;;;;;;;;;;4274137;33;20161;-73
2021/10/15 11:57:01;;;;;;;7.30;1.47;;;;;;;;;;4273869;33;20228;-71
2021/10/15 11:59:27;;;;;;;8.07;2.15;;;;;;;;;;4273749;33;20340;-73
2021/10/15 12:01:55;;;;;;;9.50;1.73;;;;;;;;;;4274114;33;20621;-75
2021/10/15 12:04:20;;;;;;;9.43;1.77;;;;;;;;;;4273664;33;20161;-73
2021/10/15 12:06:47;;;;;;;10.88;2.00;;;;;;;;;;4286490;33;20133;-72
2021/10/15 12:09:24;;;;;;;14.50;2.00;;;;;;;;;;4273786;33;20164;-74
2021/10/15 12:11:53;;;;;;;15.18;2.20;;;;;;;;;;4273783;33;20196;-73
2021/10/15 12:14:46;;;;;;;11.73;2.10;;;;;;;;;;4274063;33;20215;-74
2021/10/15 12:17:12;;;;;;;10.25;2.30;;;;;;;;;;4287210;33;20261;-72
2021/10/15 12:19:39;;;;;;;8.60;2.08;;;;;;;;;;4273861;33;20168;-75
2021/10/15 12:22:08;;;;;;;15.40;2.20;;;;;;;;;;4270104;33;20161;-72
2021/10/15 12:24:35;;;;;;;9.00;1.92;;;;;;;;;;4286921;33;20206;-74
2021/10/15 12:27:02;;;;;;;11.48;2.33;;;;;;;;;;4286342;33;20191;-74
2021/10/15 12:29:29;;;;;;;7.53;1.65;;;;;;;;;;4285041;33;20156;-73
2021/10/15 12:32:07;;;;;;;10.90;2.20;;;;;;;;;;4284957;33;20255;-71
2021/10/15 12:34:48;;;;;;;12.32;2.22;;;;;;;;;;4286658;33;20132;-73
2021/10/15 12:37:13;;;;;;;11.00;2.40;;;;;;;;;;4285416;33;20183;-73
2021/10/15 12:39:58;;;;;;;7.97;2.08;;;;;;;;;;4287053;33;20283;-73
2021/10/15 12:42:26;;;;;;;9.68;2.08;;;;;;;;;;4289575;33;20179;-74
2021/10/15 12:45:09;;;;;;;10.45;1.90;;;;;;;;;;4288951;33;20247;-73
2021/10/15 12:47:35;;;;;;;8.90;1.75;;;;;;;;;;4288241;33;20153;-74
2021/10/15 12:50:03;;;;;;;7.60;1.77;;;;;;;;;;4288491;33;20456;-72
2021/10/15 12:52:42;;;;;;;12.65;1.90;;;;;;;;;;4283479;33;20222;-74
2021/10/15 12:55:18;;;;;;;9.70;1.73;;;;;;;;;;4298046;33;20155;-72
2021/10/15 12:57:44;;;;;;;6.70;1.80;;;;;;;;;;4291994;33;20156;-73
2021/10/15 13:00:11;;;;;;;10.32;2.05;;;;;;;;;;4302898;33;20152;-72
2021/10/15 13:02:37;;;;;;;9.65;1.95;;;;;;;;;;4290220;33;20179;-74
2021/10/15 13:05:04;;;;;;;14.20;1.70;;;;;;;;;;4303542;33;20159;-72
2021/10/15 13:07:29;;;;;;;9.70;1.70;;;;;;;;;;4303474;33;20243;-72
2021/10/15 13:09:55;;;;;;;7.67;1.60;;;;;;;;;;4303157;33;20542;-73
2021/10/15 13:12:21;;;;;;;10.88;1.90;;;;;;;;;;4303491;33;20230;-73
2021/10/15 13:14:58;;;;;;;7.18;1.65;;;;;;;;;;4290345;33;20202;-73
2021/10/15 13:17:40;;;;;;;22.80;2.80;;;;;;;;;;4303354;33;20128;-74
2021/10/15 13:20:07;;;;;;;14.15;2.30;;;;;;;;;;4290277;33;20160;-71
2021/10/15 13:22:38;;;;;;;6.65;1.50;;;;;;;;;;4303320;33;20170;-75
2021/10/15 13:25:04;;;;;;;8.80;1.85;;;;;;;;;;4290107;33;20242;-73
2021/10/15 13:27:39;;;;;;;6.25;1.70;;;;;;;;;;4290708;33;20567;-74
2021/10/15 13:30:05;;;;;;;7.25;1.58;;;;;;;;;;4303690;33;20124;-73
2021/10/15 13:32:33;;;;;;;7.35;1.37;;;;;;;;;;4290672;33;20451;-74
2021/10/15 13:35:26;;;;;;;7.75;1.60;;;;;;;;;;4303201;33;20151;-74
2021/10/15 13:37:59;;;;;;;10.45;2.20;;;;;;;;;;4297400;33;20148;-73
2021/10/15 13:40:27;;;;;;;5.87;1.45;;;;;;;;;;4290995;33;20144;-75
2021/10/15 13:45:42;;;;;;;9.35;1.92;;;;;;;;;;4303117;33;20195;-73
2021/10/15 13:50:54;;;;;;;13.13;1.92;;;;;;;;;;4302097;33;20151;-73
2021/10/15 13:53:29;;;;;;;;;;;;;;;;;;;;;
2021/10/15 13:55:58;;;;;;;11.07;2.22;;;;;;;;;;4303864;33;20171;-75
2021/10/15 13:58:28;;;;;;;10.00;1.98;;;;;;;;;;4289999;33;20187;-71
2021/10/15 14:00:59;;;;;;;10.30;2.22;;;;;;;;;;4302849;33;20144;-74
2021/10/15 14:06:00;;;;;;;9.75;2.00;;;;;;;;;;4303092;33;20195;-73
2021/10/15 14:08:26;;;;;;;9.23;1.80;;;;;;;;;;4289685;33;20164;-74
2021/10/15 14:10:51;;;;;;;10.32;2.30;;;;;;;;;;4302381;33;20133;-70
2021/10/15 14:13:20;;;;;;;10.05;2.17;;;;;;;;;;4289780;33;20223;-73
2021/10/15 14:15:48;;;;;;;11.00;1.92;;;;;;;;;;4288355;33;20164;-73
2021/10/15 14:18:23;;;;;;;52.70;4.30;;;;;;;;;;4302545;33;20203;-73
2021/10/15 14:20:52;;;;;;;26.17;6.03;;;;;;;;;;4289674;33;20259;-73
2021/10/15 14:23:17;;;;;;;10.75;2.05;;;;;;;;;;4301845;33;20559;-69
2021/10/15 14:25:42;;;;;;;11.80;2.17;;;;;;;;;;4301911;33;20215;-75
2021/10/15 14:28:11;;;;;;;22.85;3.20;;;;;;;;;;4301511;33;20144;-72
2021/10/15 14:30:36;;;;;;;12.73;1.87;;;;;;;;;;4302652;33;20588;-73
2021/10/15 14:33:07;;;;;;;12.15;2.30;;;;;;;;;;4303353;33;20156;-72
2021/10/15 14:35:36;;;;;;;10.98;2.25;;;;;;;;;;4300286;33;20181;-72
2021/10/15 14:38:02;;;;;;;33.72;3.62;;;;;;;;;;4298744;33;20152;-72
2021/10/15 14:40:27;;;;;;;8.80;2.17;;;;;;;;;;4286567;33;20173;-72
2021/10/15 14:42:53;;;;;;;5.70;1.60;;;;;;;;;;4286954;33;20183;-72
2021/10/15 14:45:18;;;;;;;6.32;1.70;;;;;;;;;;4287848;33;20372;-73
2021/10/15 14:47:44;;;;;;;15.57;2.85;;;;;;;;;;4302487;33;20190;-73
2021/10/15 14:50:18;;;;;;;20.65;2.75;;;;;;;;;;4302234;33;20202;-75
2021/10/15 14:53:08;;;;;;;5.95;1.55;;;;;;;;;;4302093;33;20195;-75
2021/10/15 14:55:36;;;;;;;8.50;1.62;;;;;;;;;;4290778;33;20210;-72
2021/10/15 14:58:01;;;;;;;7.32;2.20;;;;;;;;;;4287372;33;20314;-72
2021/10/15 15:00:29;;;;;;;5.57;1.52;;;;;;;;;;4302441;33;20153;-72
2021/10/15 15:02:57;;;;;;;7.05;1.55;;;;;;;;;;4301414;33;20156;-72
2021/10/15 15:05:22;;;;;;;6.72;1.42;;;;;;;;;;4301596;33;20566;-74
2021/10/15 15:07:49;;;;;;;19.55;2.47;;;;;;;;;;4288708;33;20249;-72
2021/10/15 15:10:18;;;;;;;4.85;1.67;;;;;;;;;;4302175;33;20448;-74
2021/10/15 15:12:55;;;;;;;7.05;1.62;;;;;;;;;;4288693;33;20164;-73
2021/10/15 15:15:20;;;;;;;6.82;1.62;;;;;;;;;;4302530;33;20136;-73
2021/10/15 15:17:45;;;;;;;6.55;1.60;;;;;;;;;;4302204;33;20636;-75
2021/10/15 15:20:14;;;;;;;11.45;2.42;;;;;;;;;;4302083;33;20543;-72
2021/10/15 15:22:42;;;;;;;10.85;1.75;;;;;;;;;;4288459;33;20219;-72
2021/10/15 15:25:28;;;;;;;8.88;2.10;;;;;;;;;;4301420;33;20160;-72
2021/10/15 15:27:53;;;;;;;18.17;3.55;;;;;;;;;;4299615;33;20199;-71
2021/10/15 15:30:24;;;;;;;7.10;1.52;;;;;;;;;;4302111;33;20191;-72
2021/10/15 15:33:04;;;;;;;10.43;1.80;;;;;;;;;;4288020;33;20725;-72
2021/10/15 15:35:30;;;;;;;8.18;1.87;;;;;;;;;;4301635;33;20194;-72
2021/10/15 15:37:56;;;;;;;9.57;1.90;;;;;;;;;;4288569;33;20160;-73
2021/10/15 15:40:21;;;;;;;10.88;2.00;;;;;;;;;;4301703;33;20241;-72
2021/10/15 15:42:46;;;;;;;8.55;1.85;;;;;;;;;;4288646;33;20172;-71
2021/10/15 15:45:18;;;;;;;10.07;1.98;;;;;;;;;;4301910;33;20148;-72
2021/10/15 15:47:51;;;;;;;9.18;1.85;;;;;;;;;;4288065;33;20171;-72
2021/10/15 15:50:18;;;;;;;9.90;1.90;;;;;;;;;;4288537;33;20160;-72
2021/10/15 15:52:48;;;;;;;10.52;1.98;;;;;;;;;;4301596;33;20156;-72
2021/10/15 15:55:15;;;;;;;5.60;1.33;;;;;;;;;;4301428;33;20167;-72
2021/10/15 15:57:53;;;;;;;8.82;1.62;;;;;;;;;;4288013;33;20168;-72
2021/10/15 16:00:19;;;;;;;11.00;2.65;;;;;;;;;;4283093;33;20191;-70
2021/10/15 16:03:13;;;;;;;10.75;2.25;;;;;;;;;;4299683;33;20156;-72
2021/10/15 16:05:44;;;;;;;8.30;1.90;;;;;;;;;;4278164;33;20202;-72
2021/10/15 16:08:21;;;;;;;8.30;1.87;;;;;;;;;;4297383;33;20222;-73
2021/10/15 16:10:47;;;;;;;9.70;2.60;;;;;;;;;;4293531;33;20218;-74
2021/10/15 16:16:38;;;;;;;7.97;1.60;;;;;;;;;;4290704;33;20219;-76